Página principal
METAR-TAF:

METAR-TAF

Aeroportos :

Diego Garcia, Território Britânico do Oceano Índico

latitude: 07-18S, longitude: 072-24E, altura: 1 m

Observação actual do tempo

O boletim foi feito há 1 hora e 50 minutos, às 11:55 UTC
Vento 13 kt de su-sudeste
Temperatura 29°C
Humidade 84%
Pressão 1010 hPa
Visibilidade 10 km ou mais
Poucas nuvensa uma altura de 2100 ft
Nuvens dispersasa uma altura de 4400 ft

METAR: FJDG 171155Z 15013KT 9999 FEW021 SCT044 29/26 A2982 RMK SLP095 8/800 T02890261 10327 20289 55003

Hora: 19:45 (13:45 UTC)

Previsão

O boletim foi feito há 4 horas e 45 minutos, às 09:00 UTC
Previsão válida de 17 às 09 UTC a 18 às 15 UTC
Vento 12 kt de su-sudeste
Visibilidade 10 km ou mais
Poucas nuvensa uma altura de 2000 ft
Poucas nuvensa uma altura de 5000 ft
Nuvens dispersasa uma altura de 25000 ft

TAF: FJDG 170900Z 1709/1815 15012KT 9999 FEW020 FEW050 SCT250 QNH2982INS TX32/1806Z TN27/1714Z

Observações e previsões do tempo de mais de 4000 aeroportos (mensagens METAR e TAF).

As estações disponíveis são os pontos amarelos e vermelhos sobre o mapa.

Mova o rato sobre o mapa para ver o nome da estação.

Depois clique no ponto para visualizar as observações e previsões meteorológicas.

Para alterar o mapa : clique nos botões verdes com uma cruz preta para aumentar o zoom; no botão verde com uma pitada de zoom; ou nas setas verdes para mapas adjacentes.


METAR-TAF: